createdAt,value
2018-08-14T00:00:36.395Z,16.57
2018-08-14T00:01:36.452Z,16.63
2018-08-14T00:02:36.513Z,16.62
2018-08-14T00:03:36.571Z,16.47
2018-08-14T00:04:36.632Z,16.41
2018-08-14T00:05:36.689Z,16.47
2018-08-14T00:06:36.748Z,16.52
2018-08-14T00:07:36.865Z,16.40
2018-08-14T00:08:36.867Z,16.33
2018-08-14T00:09:36.927Z,16.34
2018-08-14T00:10:36.985Z,16.44
2018-08-14T00:11:37.046Z,16.30
2018-08-14T00:12:37.105Z,16.34
2018-08-14T00:13:37.163Z,16.50
2018-08-14T00:14:37.226Z,16.36
2018-08-14T00:15:37.282Z,16.23
2018-08-14T00:16:37.342Z,16.13
2018-08-14T00:17:37.400Z,16.07
2018-08-14T00:18:37.611Z,15.92
2018-08-14T00:19:37.520Z,15.98
2018-08-14T00:20:37.603Z,15.98
2018-08-14T00:21:37.637Z,15.96
2018-08-14T00:22:37.696Z,15.91
2018-08-14T00:23:37.757Z,15.92
2018-08-14T00:24:37.815Z,15.91
2018-08-14T00:25:37.874Z,15.95
2018-08-14T00:26:37.934Z,16.06
2018-08-14T00:27:37.993Z,16.01
2018-08-14T00:28:38.052Z,15.99
2018-08-14T00:29:38.111Z,16.07
2018-08-14T00:30:38.170Z,16.07
2018-08-14T00:31:38.229Z,16.04
2018-08-14T00:32:38.289Z,16.07
2018-08-14T00:33:38.348Z,16.04
2018-08-14T00:34:38.408Z,15.95
2018-08-14T00:35:38.474Z,15.96
2018-08-14T00:36:38.527Z,15.96
2018-08-14T00:37:38.589Z,15.93
2018-08-14T00:38:38.644Z,16.08
2018-08-14T00:39:38.704Z,16.14
2018-08-14T00:40:38.763Z,16.18
2018-08-14T00:41:38.823Z,16.23
2018-08-14T00:42:38.880Z,16.16
2018-08-14T00:43:39.097Z,16.03
2018-08-14T00:44:39.001Z,15.98
2018-08-14T00:45:39.061Z,16.04
2018-08-14T00:46:39.118Z,15.93
2018-08-14T00:47:39.178Z,15.85
2018-08-14T00:48:39.237Z,15.85
2018-08-14T00:49:39.294Z,16.04
2018-08-14T00:50:39.355Z,15.98
2018-08-14T00:51:39.414Z,15.85
2018-08-14T00:52:39.474Z,15.91
2018-08-14T00:53:39.532Z,15.99
2018-08-14T00:54:39.592Z,16.16
2018-08-14T00:55:39.650Z,16.17
2018-08-14T00:56:39.711Z,16.13
2018-08-14T00:57:39.769Z,15.99
2018-08-14T00:58:39.847Z,16.03
2018-08-14T00:59:39.889Z,15.98
2018-08-14T01:00:39.950Z,16.11
2018-08-14T01:01:40.009Z,16.26
2018-08-14T01:02:40.090Z,16.37
2018-08-14T01:03:40.128Z,16.29
2018-08-14T01:04:40.188Z,16.03
2018-08-14T01:05:40.245Z,15.92
2018-08-14T01:06:40.308Z,16.04
2018-08-14T01:07:40.368Z,16.27
2018-08-14T01:08:40.425Z,16.25
2018-08-14T01:09:40.482Z,16.07
2018-08-14T01:10:40.545Z,16.27
2018-08-14T01:11:40.601Z,16.22
2018-08-14T01:12:40.660Z,16.30
2018-08-14T01:13:40.718Z,16.34
2018-08-14T01:14:40.780Z,16.29
2018-08-14T01:15:40.838Z,16.16
2018-08-14T01:16:40.897Z,15.98
2018-08-14T01:17:40.956Z,16.04
2018-08-14T01:18:41.014Z,16.16
2018-08-14T01:19:41.074Z,16.07
2018-08-14T01:20:41.133Z,16.14
2018-08-14T01:21:41.192Z,16.01
2018-08-14T01:22:41.250Z,15.89
2018-08-14T01:23:41.310Z,15.92
2018-08-14T01:24:41.369Z,15.80
2018-08-14T01:25:41.428Z,15.81
2018-08-14T01:26:41.487Z,15.80
2018-08-14T01:27:41.547Z,15.89
2018-08-14T01:28:41.606Z,15.76
2018-08-14T01:29:41.667Z,15.93
2018-08-14T01:30:41.723Z,15.88
2018-08-14T01:31:41.782Z,15.91
2018-08-14T01:32:41.842Z,15.80
2018-08-14T01:33:41.900Z,15.95
2018-08-14T01:34:41.959Z,15.98
2018-08-14T01:35:42.020Z,16.03
2018-08-14T01:36:42.078Z,16.01
2018-08-14T01:37:42.137Z,16.06
2018-08-14T01:38:42.197Z,15.99
2018-08-14T01:39:42.255Z,15.91
2018-08-14T01:40:42.314Z,15.77
2018-08-14T01:41:42.373Z,15.81
2018-08-14T01:42:42.431Z,15.85
2018-08-14T01:43:42.492Z,15.67
2018-08-14T01:44:42.551Z,15.84
2018-08-14T01:45:42.608Z,15.80
2018-08-14T01:46:42.669Z,15.84
2018-08-14T01:47:42.727Z,15.68
2018-08-14T01:48:42.807Z,15.67
2018-08-14T01:49:42.845Z,15.62
2018-08-14T01:50:42.904Z,15.53
2018-08-14T01:51:42.964Z,15.74
2018-08-14T01:52:43.023Z,15.59
2018-08-14T01:53:43.082Z,15.67
2018-08-14T01:54:43.140Z,15.60
2018-08-14T01:55:43.202Z,15.53
2018-08-14T01:56:43.259Z,15.52
2018-08-14T01:57:43.317Z,15.52
2018-08-14T01:58:43.376Z,15.49
2018-08-14T01:59:43.437Z,15.49
2018-08-14T02:00:43.495Z,15.37
2018-08-14T02:01:43.554Z,15.38
2018-08-14T02:02:43.613Z,15.56
2018-08-14T02:03:43.672Z,15.71
2018-08-14T02:04:43.983Z,15.85
2018-08-14T02:05:43.792Z,15.53
2018-08-14T02:06:43.852Z,15.71
2018-08-14T02:07:43.908Z,15.93
2018-08-14T02:08:43.967Z,16.01
2018-08-14T02:09:44.027Z,16.07
2018-08-14T02:10:44.085Z,15.95
2018-08-14T02:11:44.143Z,15.71
2018-08-14T02:12:44.203Z,15.73
2018-08-14T02:13:44.261Z,15.81
2018-08-14T02:14:44.320Z,15.93
2018-08-14T02:15:44.381Z,15.89
2018-08-14T02:16:44.439Z,15.77
2018-08-14T02:17:44.502Z,15.86
2018-08-14T02:18:44.556Z,15.88
2018-08-14T02:19:44.866Z,15.89
2018-08-14T02:20:44.675Z,15.80
2018-08-14T02:21:44.732Z,15.86
2018-08-14T02:22:44.810Z,16.01
2018-08-14T02:23:44.852Z,16.01
2018-08-14T02:24:44.926Z,16.04
2018-08-14T02:25:44.984Z,16.06
2018-08-14T02:26:45.029Z,16.16
2018-08-14T02:27:45.088Z,15.98
2018-08-14T02:28:45.148Z,15.92
2018-08-14T02:29:45.204Z,15.93
2018-08-14T02:30:45.273Z,15.77
2018-08-14T02:31:45.335Z,15.76
2018-08-14T02:32:45.384Z,15.84
2018-08-14T02:33:45.442Z,16.03
2018-08-14T02:34:45.500Z,15.92
2018-08-14T02:35:45.562Z,15.95
2018-08-14T02:36:45.620Z,15.99
2018-08-14T02:37:45.681Z,15.95
2018-08-14T02:38:45.737Z,15.93
2018-08-14T02:39:45.797Z,15.98
2018-08-14T02:40:45.855Z,15.89
2018-08-14T02:41:45.919Z,15.84
2018-08-14T02:42:45.974Z,15.92
2018-08-14T02:43:46.029Z,15.99
2018-08-14T02:44:46.090Z,16.10
2018-08-14T02:45:46.147Z,16.04
2018-08-14T02:46:46.207Z,16.03
2018-08-14T02:47:46.265Z,16.03
2018-08-14T02:48:46.331Z,15.89
2018-08-14T02:49:46.383Z,15.93
2018-08-14T02:50:46.442Z,15.91
2018-08-14T02:51:46.505Z,15.86
2018-08-14T02:52:46.563Z,15.84
2018-08-14T02:53:46.620Z,15.85
2018-08-14T02:54:46.679Z,15.84
2018-08-14T02:55:46.738Z,15.86
2018-08-14T02:56:46.798Z,15.86
2018-08-14T02:57:46.857Z,15.86
2018-08-14T02:58:46.914Z,15.76
2018-08-14T02:59:46.974Z,16.01
2018-08-14T03:00:47.034Z,15.81
2018-08-14T03:01:47.094Z,15.96
2018-08-14T03:02:47.150Z,15.93
2018-08-14T03:03:47.211Z,15.98
2018-08-14T03:04:47.271Z,15.95
2018-08-14T03:05:47.328Z,15.89
2018-08-14T03:06:47.388Z,15.92
2018-08-14T03:07:47.447Z,15.81
2018-08-14T03:08:47.508Z,15.92
2018-08-14T03:09:47.565Z,15.99
2018-08-14T03:10:47.625Z,15.96
2018-08-14T03:11:47.688Z,15.92
2018-08-14T03:12:47.743Z,15.95
2018-08-14T03:13:47.801Z,15.84
2018-08-14T03:14:47.866Z,15.81
2018-08-14T03:15:47.920Z,15.74
2018-08-14T03:16:47.980Z,15.80
2018-08-14T03:17:48.040Z,15.89
2018-08-14T03:18:48.098Z,15.96
2018-08-14T03:19:48.289Z,15.91
2018-08-14T03:20:48.217Z,15.96
2018-08-14T03:21:48.274Z,16.03
2018-08-14T03:22:48.333Z,16.08
2018-08-14T03:23:48.394Z,16.03
2018-08-14T03:24:48.453Z,15.96
2018-08-14T03:25:48.511Z,15.99
2018-08-14T03:26:48.571Z,16.16
2018-08-14T03:27:48.631Z,16.25
2018-08-14T03:28:48.689Z,16.25
2018-08-14T03:29:48.746Z,16.23
2018-08-14T03:30:48.807Z,16.22
2018-08-14T03:31:48.869Z,16.25
2018-08-14T03:32:48.924Z,16.18
2018-08-14T03:33:48.983Z,16.16
2018-08-14T03:34:49.042Z,16.17
2018-08-14T03:35:49.102Z,16.14
2018-08-14T03:36:49.161Z,16.04
2018-08-14T03:37:49.219Z,16.16
2018-08-14T03:38:49.280Z,16.22
2018-08-14T03:39:49.342Z,16.22
2018-08-14T03:40:49.648Z,16.16
2018-08-14T03:41:49.456Z,16.29
2018-08-14T03:42:49.515Z,16.25
2018-08-14T03:43:49.575Z,16.18
2018-08-14T03:44:49.635Z,16.25
2018-08-14T03:45:49.695Z,16.23
2018-08-14T03:46:49.752Z,16.17
2018-08-14T03:47:49.811Z,16.23
2018-08-14T03:48:49.871Z,16.17
2018-08-14T03:49:49.930Z,16.07
2018-08-14T03:50:50.024Z,16.07
2018-08-14T03:51:50.049Z,16.14
2018-08-14T03:52:50.118Z,16.14
2018-08-14T03:53:50.166Z,16.16
2018-08-14T03:54:50.226Z,15.99
2018-08-14T03:55:50.299Z,16.03
2018-08-14T03:56:50.352Z,15.98
2018-08-14T03:57:50.403Z,15.99
2018-08-14T03:58:50.466Z,16.04
2018-08-14T03:59:50.523Z,16.01
2018-08-14T04:00:50.581Z,16.04
2018-08-14T04:01:50.640Z,16.10
2018-08-14T04:02:50.700Z,16.16
2018-08-14T04:03:50.760Z,16.23
2018-08-14T04:04:50.820Z,16.18
2018-08-14T04:05:51.127Z,16.04
2018-08-14T04:06:50.941Z,16.08
2018-08-14T04:07:50.995Z,16.14
2018-08-14T04:08:51.707Z,16.04
2018-08-14T04:09:51.114Z,16.06
2018-08-14T04:10:51.174Z,16.25
2018-08-14T04:11:51.235Z,16.27
2018-08-14T04:12:51.292Z,16.25
2018-08-14T04:13:51.351Z,16.14
2018-08-14T04:14:51.412Z,16.07
2018-08-14T04:15:51.471Z,16.07
2018-08-14T04:16:51.529Z,16.16
2018-08-14T04:17:51.588Z,16.23
2018-08-14T04:18:51.646Z,16.33
2018-08-14T04:19:51.712Z,16.48
2018-08-14T04:20:51.765Z,16.44
2018-08-14T04:21:51.824Z,16.45
2018-08-14T04:22:51.888Z,16.34
2018-08-14T04:23:51.942Z,16.40
2018-08-14T04:24:52.003Z,16.32
2018-08-14T04:25:52.060Z,16.30
2018-08-14T04:26:52.124Z,16.30
2018-08-14T04:27:52.179Z,16.44
2018-08-14T04:28:52.238Z,16.42
2018-08-14T04:29:52.298Z,16.44
2018-08-14T04:30:52.356Z,16.33
2018-08-14T04:31:52.415Z,16.25
2018-08-14T04:32:52.475Z,16.26
2018-08-14T04:33:52.535Z,16.17
2018-08-14T04:34:52.595Z,16.17
2018-08-14T04:35:52.653Z,16.22
2018-08-14T04:36:52.713Z,16.34
2018-08-14T04:37:52.770Z,16.47
2018-08-14T04:38:52.831Z,16.48
2018-08-14T04:39:52.890Z,16.44
2018-08-14T04:40:52.949Z,16.42
2018-08-14T04:41:53.007Z,16.44
2018-08-14T04:42:53.067Z,16.59
2018-08-14T04:43:53.126Z,16.62
2018-08-14T04:44:53.186Z,16.69
2018-08-14T04:45:53.270Z,16.59
2018-08-14T04:46:53.306Z,16.59
2018-08-14T04:47:53.364Z,16.62
2018-08-14T04:48:53.424Z,16.52
2018-08-14T04:49:53.483Z,16.52
2018-08-14T04:50:53.542Z,16.54
2018-08-14T04:51:53.601Z,16.47
2018-08-14T04:52:53.664Z,16.41
2018-08-14T04:53:53.729Z,16.40
2018-08-14T04:54:53.780Z,16.41
2018-08-14T04:55:53.839Z,16.62
2018-08-14T04:56:53.898Z,16.67
2018-08-14T04:57:53.955Z,16.80
2018-08-14T04:58:54.016Z,16.88
2018-08-14T04:59:54.076Z,16.88
2018-08-14T05:00:54.134Z,17.00
2018-08-14T05:01:54.194Z,17.03
2018-08-14T05:02:54.252Z,17.07
2018-08-14T05:03:54.312Z,17.09
2018-08-14T05:04:54.373Z,16.95
2018-08-14T05:05:54.431Z,16.95
2018-08-14T05:06:54.490Z,16.84
2018-08-14T05:07:54.550Z,16.96
2018-08-14T05:08:54.655Z,17.06
2018-08-14T05:09:54.668Z,17.07
2018-08-14T05:10:54.727Z,17.15
2018-08-14T05:11:54.789Z,17.27
2018-08-14T05:12:54.848Z,17.21
2018-08-14T05:13:54.907Z,17.17
2018-08-14T05:14:54.966Z,17.24
2018-08-14T05:15:55.025Z,17.21
2018-08-14T05:16:55.086Z,17.17
2018-08-14T05:17:55.144Z,17.24
2018-08-14T05:18:55.203Z,17.28
2018-08-14T05:19:55.264Z,17.35
2018-08-14T05:20:55.329Z,17.22
2018-08-14T05:21:55.382Z,17.15
2018-08-14T05:22:55.442Z,17.30
2018-08-14T05:23:55.501Z,17.38
2018-08-14T05:24:55.561Z,17.27
2018-08-14T05:25:55.735Z,17.18
2018-08-14T05:26:55.680Z,17.33
2018-08-14T05:27:55.740Z,17.33
2018-08-14T05:28:55.799Z,17.30
2018-08-14T05:29:55.859Z,17.27
2018-08-14T05:30:55.919Z,17.12
2018-08-14T05:31:56.003Z,17.21
2018-08-14T05:32:56.038Z,17.21
2018-08-14T05:33:56.101Z,17.17
2018-08-14T05:34:56.848Z,17.15
2018-08-14T05:35:56.218Z,17.27
2018-08-14T05:36:56.278Z,17.43
2018-08-14T05:37:56.337Z,17.35
2018-08-14T05:38:56.396Z,17.51
2018-08-14T05:39:56.455Z,17.53
2018-08-14T05:40:56.515Z,17.60
2018-08-14T05:41:56.592Z,17.55
2018-08-14T05:42:56.634Z,17.57
2018-08-14T05:43:56.694Z,17.58
2018-08-14T05:44:56.756Z,17.58
2018-08-14T05:45:56.812Z,17.58
2018-08-14T05:46:57.125Z,17.65
2018-08-14T05:47:56.938Z,17.57
2018-08-14T05:48:57.011Z,17.54
2018-08-14T05:49:57.052Z,17.63
2018-08-14T05:50:57.120Z,17.73
2018-08-14T05:51:57.172Z,17.73
2018-08-14T05:52:57.321Z,17.79
2018-08-14T05:53:57.290Z,17.80
2018-08-14T05:54:57.351Z,17.91
2018-08-14T05:55:57.412Z,17.84
2018-08-14T05:56:57.473Z,17.87
2018-08-14T05:57:57.530Z,17.94
2018-08-14T05:58:57.591Z,17.94
2018-08-14T05:59:57.651Z,17.89
2018-08-14T06:00:57.712Z,17.94
2018-08-14T06:01:57.771Z,18.01
2018-08-14T06:02:57.831Z,17.99
2018-08-14T06:03:57.892Z,18.07
2018-08-14T06:04:57.950Z,18.13
2018-08-14T06:05:58.017Z,18.10
2018-08-14T06:06:58.070Z,18.17
2018-08-14T06:07:58.133Z,18.16
2018-08-14T06:08:58.190Z,18.17
2018-08-14T06:09:58.251Z,18.11
2018-08-14T06:10:58.311Z,18.11
2018-08-14T06:11:58.371Z,18.09
2018-08-14T06:12:58.432Z,18.13
2018-08-14T06:13:58.491Z,18.23
2018-08-14T06:14:58.552Z,18.25
2018-08-14T06:15:58.612Z,18.26
2018-08-14T06:16:58.783Z,18.31
2018-08-14T06:17:58.731Z,18.35
2018-08-14T06:18:58.792Z,18.26
2018-08-14T06:19:58.853Z,18.26
2018-08-14T06:20:58.912Z,18.31
2018-08-14T06:21:58.975Z,18.21
2018-08-14T06:22:59.037Z,18.25
2018-08-14T06:23:59.094Z,18.23
2018-08-14T06:24:59.210Z,18.21
2018-08-14T06:25:59.213Z,18.35
2018-08-14T06:26:59.585Z,18.42
2018-08-14T06:27:59.335Z,18.41
2018-08-14T06:28:59.396Z,18.62
2018-08-14T06:29:59.454Z,18.62
2018-08-14T06:30:59.539Z,18.57
2018-08-14T06:31:59.576Z,18.75
2018-08-14T06:32:59.637Z,18.68
2018-08-14T06:33:59.697Z,18.62
2018-08-14T06:34:59.757Z,18.68
2018-08-14T06:35:59.818Z,18.75
2018-08-14T06:36:59.881Z,18.76
2018-08-14T06:37:59.938Z,18.82
2018-08-14T06:39:00.001Z,18.64
2018-08-14T06:40:00.067Z,18.64
2018-08-14T06:41:00.122Z,18.76
2018-08-14T06:42:00.180Z,18.69
2018-08-14T06:43:00.493Z,18.72
2018-08-14T06:44:00.302Z,18.79
2018-08-14T06:45:00.363Z,18.78
2018-08-14T06:46:00.425Z,18.79
2018-08-14T06:47:00.485Z,18.86
2018-08-14T06:48:00.545Z,18.84
2018-08-14T06:49:01.232Z,18.84
2018-08-14T06:50:01.101Z,18.79
2018-08-14T06:51:00.728Z,18.78
2018-08-14T06:52:00.789Z,18.89
2018-08-14T06:53:00.850Z,18.97
2018-08-14T06:54:00.911Z,18.97
2018-08-14T06:55:00.972Z,19.01
2018-08-14T06:56:01.033Z,18.91
2018-08-14T06:57:01.095Z,18.90
2018-08-14T06:58:01.157Z,18.99
2018-08-14T06:59:01.215Z,18.99
2018-08-14T07:00:01.281Z,18.97
2018-08-14T07:01:01.338Z,19.07
2018-08-14T07:02:01.400Z,18.99
2018-08-14T07:03:01.463Z,19.02
2018-08-14T07:04:01.526Z,18.93
2018-08-14T07:05:01.582Z,18.87
2018-08-14T07:06:01.642Z,18.86
2018-08-14T07:07:01.704Z,18.89
2018-08-14T07:08:01.770Z,18.89
2018-08-14T07:09:01.826Z,18.99
2018-08-14T07:10:01.886Z,18.94
2018-08-14T07:11:01.948Z,18.93
2018-08-14T07:12:02.012Z,18.93
2018-08-14T07:13:02.801Z,18.87
2018-08-14T07:14:02.129Z,18.79
2018-08-14T07:15:02.192Z,18.89
2018-08-14T07:16:02.251Z,18.91
2018-08-14T07:17:02.315Z,18.87
2018-08-14T07:18:02.372Z,18.78
2018-08-14T07:19:02.434Z,18.87
2018-08-14T07:20:02.495Z,18.93
2018-08-14T07:21:02.555Z,18.97
2018-08-14T07:22:02.616Z,19.01
2018-08-14T07:23:02.677Z,18.99
2018-08-14T07:24:02.738Z,19.10
2018-08-14T07:25:02.799Z,19.34
2018-08-14T07:26:02.862Z,19.31
2018-08-14T07:27:02.920Z,19.40
2018-08-14T07:28:02.982Z,19.47
2018-08-14T07:29:03.043Z,19.53
2018-08-14T07:30:03.103Z,19.62
2018-08-14T07:31:03.172Z,19.60
2018-08-14T07:32:03.226Z,19.70
2018-08-14T07:33:03.287Z,19.65
2018-08-14T07:34:03.349Z,19.78
2018-08-14T07:35:03.410Z,19.78
2018-08-14T07:36:03.471Z,19.82
2018-08-14T07:37:03.533Z,19.75
2018-08-14T07:38:03.595Z,19.71
2018-08-14T07:39:03.655Z,19.79
2018-08-14T07:40:03.719Z,19.76
2018-08-14T07:41:04.369Z,19.78
2018-08-14T07:42:03.841Z,19.87
2018-08-14T07:43:03.902Z,19.92
2018-08-14T07:44:03.965Z,19.98
2018-08-14T07:45:04.027Z,19.86
2018-08-14T07:46:04.087Z,19.80
2018-08-14T07:47:04.148Z,19.68
2018-08-14T07:48:04.210Z,19.67
2018-08-14T07:49:04.272Z,19.52
2018-08-14T07:50:04.368Z,19.52
2018-08-14T07:51:04.395Z,19.53
2018-08-14T07:52:04.457Z,19.68
2018-08-14T07:53:04.567Z,19.62
2018-08-14T07:54:04.581Z,19.62
2018-08-14T07:55:04.644Z,19.68
2018-08-14T07:56:04.738Z,19.55
2018-08-14T07:57:04.767Z,19.50
2018-08-14T07:58:04.830Z,19.55
2018-08-14T07:59:05.540Z,19.50
2018-08-14T08:00:04.952Z,19.40
2018-08-14T08:01:05.701Z,19.32
2018-08-14T08:02:05.072Z,19.32
2018-08-14T08:03:05.135Z,19.39
2018-08-14T08:04:05.199Z,19.27
2018-08-14T08:05:05.257Z,19.31
2018-08-14T08:06:05.359Z,19.34
2018-08-14T08:07:05.381Z,19.30
2018-08-14T08:08:05.441Z,19.38
2018-08-14T08:09:05.760Z,19.40
2018-08-14T08:10:05.564Z,19.45
2018-08-14T08:11:05.761Z,19.55
2018-08-14T08:12:05.698Z,19.68
2018-08-14T08:13:05.748Z,19.70
2018-08-14T08:14:05.809Z,19.64
2018-08-14T08:15:05.870Z,19.62
2018-08-14T08:16:05.932Z,19.52
2018-08-14T08:17:05.993Z,19.55
2018-08-14T08:18:06.059Z,19.71
2018-08-14T08:19:06.119Z,19.70
2018-08-14T08:20:06.178Z,19.75
2018-08-14T08:21:06.241Z,19.79
2018-08-14T08:22:06.303Z,19.87
2018-08-14T08:23:06.362Z,19.89
2018-08-14T08:24:06.424Z,19.90
2018-08-14T08:25:06.487Z,19.82
2018-08-14T08:26:06.553Z,19.76
2018-08-14T08:27:06.609Z,19.76
2018-08-14T08:28:06.670Z,19.70
2018-08-14T08:29:06.733Z,19.89
2018-08-14T08:30:06.797Z,19.97
2018-08-14T08:31:06.862Z,20.00
2018-08-14T08:32:06.917Z,19.92
2018-08-14T08:33:06.980Z,19.95
2018-08-14T08:34:07.073Z,19.83
2018-08-14T08:35:07.101Z,19.94
2018-08-14T08:36:07.167Z,19.90
2018-08-14T08:37:07.225Z,19.98
2018-08-14T08:38:07.286Z,20.08
2018-08-14T08:39:07.348Z,19.97
2018-08-14T08:40:07.409Z,20.01
2018-08-14T08:41:07.471Z,19.92
2018-08-14T08:42:07.588Z,19.92
2018-08-14T08:43:07.597Z,19.82
2018-08-14T08:44:07.655Z,19.57
2018-08-14T08:45:07.717Z,19.70
2018-08-14T08:46:07.779Z,19.85
2018-08-14T08:47:07.839Z,20.04
2018-08-14T08:48:07.904Z,19.95
2018-08-14T08:49:07.989Z,20.00
2018-08-14T08:50:08.028Z,19.97
2018-08-14T08:51:08.153Z,20.02
2018-08-14T08:52:08.149Z,20.04
2018-08-14T08:53:08.210Z,20.00
2018-08-14T08:54:08.271Z,19.89
2018-08-14T08:55:08.333Z,19.97
2018-08-14T08:56:08.395Z,19.97
2018-08-14T08:57:08.458Z,20.16
2018-08-14T08:58:08.587Z,20.33
2018-08-14T08:59:08.581Z,20.04
2018-08-14T09:00:08.643Z,20.05
2018-08-14T09:01:08.703Z,20.05
2018-08-14T09:02:08.765Z,20.04
2018-08-14T09:03:08.827Z,20.10
2018-08-14T09:04:08.889Z,20.08
2018-08-14T09:05:08.951Z,20.10
2018-08-14T09:06:09.013Z,20.07
2018-08-14T09:07:09.075Z,20.05
2018-08-14T09:08:09.180Z,20.02
2018-08-14T09:09:09.198Z,19.97
2018-08-14T09:10:09.260Z,20.07
2018-08-14T09:11:09.322Z,20.15
2018-08-14T09:12:09.384Z,20.26
2018-08-14T09:13:09.445Z,20.26
2018-08-14T09:14:09.509Z,20.23
2018-08-14T09:15:09.568Z,20.27
2018-08-14T09:16:09.634Z,20.33
2018-08-14T09:17:09.693Z,20.19
2018-08-14T09:18:09.785Z,20.20
2018-08-14T09:19:09.815Z,20.10
2018-08-14T09:20:09.877Z,20.15
2018-08-14T09:21:09.939Z,20.00
2018-08-14T09:22:10.000Z,20.04
2018-08-14T09:23:10.100Z,19.94
2018-08-14T09:24:10.159Z,19.89
2018-08-14T09:25:10.224Z,19.95
2018-08-14T09:26:10.283Z,19.98
2018-08-14T09:27:10.312Z,20.13
2018-08-14T09:28:10.376Z,20.16
2018-08-14T09:29:10.435Z,19.98
2018-08-14T09:30:10.521Z,20.04
2018-08-14T09:31:10.557Z,20.15
2018-08-14T09:32:10.650Z,20.26
2018-08-14T09:33:10.696Z,20.30
2018-08-14T09:34:10.740Z,20.31
2018-08-14T09:35:10.856Z,20.35
2018-08-14T09:36:10.898Z,20.31
2018-08-14T09:37:11.326Z,20.20
2018-08-14T09:38:11.025Z,20.37
2018-08-14T09:39:11.048Z,20.48
2018-08-14T09:40:11.111Z,20.48
2018-08-14T09:41:11.173Z,20.50
2018-08-14T09:42:11.233Z,20.63
2018-08-14T09:43:11.296Z,20.57
2018-08-14T09:44:11.359Z,20.57
2018-08-14T09:45:11.419Z,20.60
2018-08-14T09:46:11.480Z,20.56
2018-08-14T09:47:11.542Z,20.57
2018-08-14T09:48:11.609Z,20.60
2018-08-14T09:49:11.667Z,20.72
2018-08-14T09:50:11.728Z,20.68
2018-08-14T09:51:11.792Z,20.76
2018-08-14T09:52:11.852Z,20.76
2018-08-14T09:53:11.913Z,20.79
2018-08-14T09:54:11.976Z,20.81
2018-08-14T09:55:12.068Z,20.79
2018-08-14T09:56:12.108Z,20.82
2018-08-14T09:57:12.884Z,20.87
2018-08-14T09:58:12.222Z,20.87
2018-08-14T09:59:12.286Z,20.88
2018-08-14T10:00:12.348Z,20.88
2018-08-14T10:01:12.410Z,20.87
2018-08-14T10:02:12.470Z,20.81
2018-08-14T10:03:12.534Z,21.01
2018-08-14T10:04:12.596Z,21.01
2018-08-14T10:05:12.659Z,21.08
2018-08-14T10:06:12.720Z,21.05
2018-08-14T10:07:12.782Z,21.00
2018-08-14T10:08:12.844Z,21.01
2018-08-14T10:09:12.906Z,21.03
2018-08-14T10:10:12.971Z,21.12
2018-08-14T10:11:13.031Z,21.15
2018-08-14T10:12:13.093Z,21.19
2018-08-14T10:13:13.513Z,21.22
2018-08-14T10:14:13.564Z,21.19
2018-08-14T10:15:13.601Z,21.27
2018-08-14T10:16:13.343Z,21.36
2018-08-14T10:17:13.428Z,21.42
2018-08-14T10:18:13.468Z,21.53
2018-08-14T10:19:13.530Z,21.52
2018-08-14T10:20:13.593Z,21.75
2018-08-14T10:21:13.681Z,21.77
2018-08-14T10:22:13.730Z,21.49
2018-08-14T10:23:13.788Z,21.68
2018-08-14T10:24:13.844Z,21.91
2018-08-14T10:25:13.907Z,22.05
2018-08-14T10:26:13.970Z,21.99
2018-08-14T10:27:14.034Z,22.15
2018-08-14T10:28:14.097Z,22.30
2018-08-14T10:29:14.161Z,22.19
2018-08-14T10:30:14.221Z,22.26
2018-08-14T10:31:14.286Z,22.23
2018-08-14T10:32:14.350Z,22.20
2018-08-14T10:33:14.413Z,22.11
2018-08-14T10:34:14.476Z,22.12
2018-08-14T10:35:14.541Z,22.08
2018-08-14T10:36:14.604Z,21.96
2018-08-14T10:37:14.670Z,21.90
2018-08-14T10:38:14.732Z,21.83
2018-08-14T10:39:14.814Z,21.98
2018-08-14T10:40:14.865Z,22.08
2018-08-14T10:41:14.924Z,22.15
2018-08-14T10:42:14.989Z,22.51
2018-08-14T10:43:15.050Z,22.11
2018-08-14T10:44:15.115Z,22.05
2018-08-14T10:45:15.179Z,22.20
2018-08-14T10:46:15.321Z,22.29
2018-08-14T10:47:15.557Z,22.36
2018-08-14T10:48:15.372Z,22.33
2018-08-14T10:49:15.435Z,22.23
2018-08-14T10:50:15.499Z,22.21
2018-08-14T10:51:15.563Z,22.04
2018-08-14T10:52:15.628Z,21.91
2018-08-14T10:53:16.003Z,21.75
2018-08-14T10:54:15.755Z,21.67
2018-08-14T10:55:15.842Z,21.77
2018-08-14T10:56:15.884Z,21.90
2018-08-14T10:57:15.948Z,21.71
2018-08-14T10:58:16.016Z,21.67
2018-08-14T10:59:16.080Z,21.81
2018-08-14T11:00:16.138Z,22.02
2018-08-14T11:01:16.201Z,22.06
2018-08-14T11:02:16.264Z,22.02
2018-08-14T11:03:16.331Z,21.85
2018-08-14T11:04:16.391Z,22.09
2018-08-14T11:05:16.454Z,22.35
2018-08-14T11:06:16.517Z,22.42
2018-08-14T11:07:16.579Z,22.09
2018-08-14T11:08:16.643Z,22.01
2018-08-14T11:09:16.709Z,22.08
2018-08-14T11:10:16.769Z,22.02
2018-08-14T11:11:16.831Z,22.12
2018-08-14T11:12:17.145Z,22.19
2018-08-14T11:13:16.964Z,22.23
2018-08-14T11:14:17.021Z,22.24
2018-08-14T11:15:17.094Z,22.11
2018-08-14T11:16:17.153Z,22.15
2018-08-14T11:17:17.212Z,22.23
2018-08-14T11:18:17.282Z,22.24
2018-08-14T11:19:17.973Z,22.11
2018-08-14T11:20:17.933Z,22.04
2018-08-14T11:21:17.467Z,22.05
2018-08-14T11:22:17.526Z,22.15
2018-08-14T11:23:17.589Z,22.19
2018-08-14T11:24:17.652Z,22.31
2018-08-14T11:25:17.715Z,22.44
2018-08-14T11:26:17.778Z,22.63
2018-08-14T11:27:17.841Z,22.89
2018-08-14T11:28:17.905Z,23.15
2018-08-14T11:29:17.968Z,23.71
2018-08-14T11:30:18.030Z,24.36
2018-08-14T11:31:18.093Z,24.29
2018-08-14T11:32:18.157Z,24.04
2018-08-14T11:33:18.225Z,23.99
2018-08-14T11:34:18.285Z,23.99
2018-08-14T11:35:18.350Z,24.99
2018-08-14T11:36:18.414Z,24.90
2018-08-14T11:37:18.480Z,24.89
2018-08-14T11:38:18.543Z,24.84
2018-08-14T11:39:18.606Z,24.70
2018-08-14T11:40:18.673Z,24.84
2018-08-14T11:41:18.739Z,24.93
2018-08-14T11:42:18.803Z,25.11
2018-08-14T11:43:18.870Z,25.34
2018-08-14T11:44:18.936Z,25.46
2018-08-14T11:45:19.007Z,25.60
2018-08-14T11:46:19.067Z,25.54
2018-08-14T11:47:19.289Z,25.66
2018-08-14T11:48:19.199Z,25.66
2018-08-14T11:49:19.272Z,25.20
2018-08-14T11:50:19.334Z,24.94
2018-08-14T11:51:19.399Z,24.66
2018-08-14T11:52:19.467Z,24.42
2018-08-14T11:53:19.603Z,24.48
2018-08-14T11:54:19.599Z,24.36
2018-08-14T11:55:19.666Z,24.44
2018-08-14T11:56:19.734Z,24.51
2018-08-14T11:57:19.805Z,24.89
2018-08-14T11:58:19.867Z,24.77
2018-08-14T11:59:19.934Z,24.89
2018-08-14T12:00:20.001Z,25.01
2018-08-14T12:01:20.070Z,24.93
2018-08-14T12:02:20.134Z,24.93
2018-08-14T12:03:20.200Z,24.90
2018-08-14T12:04:20.266Z,25.02
2018-08-14T12:05:20.336Z,24.79
2018-08-14T12:06:20.399Z,24.52
2018-08-14T12:07:20.467Z,24.44
2018-08-14T12:08:20.532Z,24.44
2018-08-14T12:09:20.599Z,24.44
2018-08-14T12:10:20.665Z,24.52
2018-08-14T12:11:21.375Z,24.52
2018-08-14T12:12:20.796Z,24.52
2018-08-14T12:13:20.864Z,24.45
2018-08-14T12:14:21.523Z,24.45
2018-08-14T12:15:20.994Z,24.48
2018-08-14T12:16:21.060Z,24.41
2018-08-14T12:17:21.126Z,24.36
2018-08-14T12:18:21.198Z,23.99
2018-08-14T12:19:21.256Z,24.14
2018-08-14T12:20:21.324Z,24.26
2018-08-14T12:21:21.389Z,24.41
2018-08-14T12:22:21.452Z,24.42
2018-08-14T12:23:21.517Z,24.61
2018-08-14T12:24:21.584Z,24.83
2018-08-14T12:25:21.649Z,24.92
2018-08-14T12:26:21.715Z,24.77
2018-08-14T12:27:21.827Z,24.89
2018-08-14T12:28:21.845Z,24.92
2018-08-14T12:29:21.910Z,24.89
2018-08-14T12:30:21.976Z,24.84
2018-08-14T12:31:22.040Z,24.97
2018-08-14T12:32:22.106Z,24.94
2018-08-14T12:33:22.172Z,24.93
2018-08-14T12:34:22.236Z,24.84
2018-08-14T12:35:22.302Z,24.64
2018-08-14T12:36:22.368Z,24.83
2018-08-14T12:37:23.038Z,24.87
2018-08-14T12:38:22.499Z,24.93
2018-08-14T12:39:22.563Z,24.90
2018-08-14T12:40:22.648Z,24.90
2018-08-14T12:41:22.695Z,25.05
2018-08-14T12:42:22.765Z,25.23
2018-08-14T12:43:22.827Z,25.35
2018-08-14T12:44:23.490Z,25.27
2018-08-14T12:45:22.959Z,25.22
2018-08-14T12:46:23.026Z,25.34
2018-08-14T12:47:23.089Z,25.19
2018-08-14T12:48:23.156Z,25.07
2018-08-14T12:49:23.222Z,25.04
2018-08-14T12:50:23.290Z,25.26
2018-08-14T12:51:23.353Z,25.30
2018-08-14T12:52:23.418Z,25.59
2018-08-14T12:53:23.634Z,25.45